createdAt,value
2022-11-18T00:00:02.391Z,23.63
2022-11-18T00:05:04.158Z,18.65
2022-11-18T00:10:05.952Z,17.42
2022-11-18T00:15:07.580Z,11.88
2022-11-18T00:20:09.013Z,18.25
2022-11-18T00:25:10.376Z,16.63
2022-11-18T00:30:11.853Z,20.35
2022-11-18T00:35:13.403Z,19.10
2022-11-18T00:40:14.884Z,17.80
2022-11-18T00:45:16.416Z,20.75
2022-11-18T00:50:17.860Z,19.60
2022-11-18T00:55:19.274Z,21.85
2022-11-18T01:00:20.776Z,18.80
2022-11-18T01:05:22.227Z,17.63
2022-11-18T01:10:23.605Z,15.73
2022-11-18T01:15:25.052Z,16.38
2022-11-18T01:20:26.458Z,16.30
2022-11-18T01:25:28.625Z,16.08
2022-11-18T01:30:30.059Z,19.42
2022-11-18T01:35:36.263Z,18.50
2022-11-18T01:40:38.864Z,23.95
2022-11-18T01:45:42.134Z,21.08
2022-11-18T01:50:47.890Z,25.17
2022-11-18T01:55:52.056Z,22.15
2022-11-18T02:00:54.193Z,21.60
2022-11-18T02:05:55.766Z,27.40
2022-11-18T02:10:57.548Z,23.63
2022-11-18T02:16:11.426Z,31.60
2022-11-18T02:21:42.010Z,30.20
2022-11-18T02:27:02.076Z,29.67
2022-11-18T02:32:25.042Z,35.10
2022-11-18T02:37:38.968Z,41.13
2022-11-18T02:42:44.475Z,33.67
2022-11-18T02:47:48.123Z,44.05
2022-11-18T02:52:55.037Z,44.00
2022-11-18T02:57:58.070Z,48.88
2022-11-18T03:03:00.271Z,60.08
2022-11-18T03:08:11.047Z,67.28
2022-11-18T03:13:22.942Z,70.90
2022-11-18T03:18:53.345Z,78.78
2022-11-18T03:24:09.540Z,67.78
2022-11-18T03:29:32.700Z,81.70
2022-11-18T03:34:49.261Z,67.38
2022-11-18T03:39:55.210Z,76.93
2022-11-18T03:45:03.716Z,80.10
2022-11-18T03:50:17.244Z,82.28
2022-11-18T03:55:24.342Z,74.60
2022-11-18T04:00:29.891Z,83.72
2022-11-18T04:05:38.148Z,77.50
2022-11-18T04:10:52.328Z,78.93
2022-11-18T04:15:54.491Z,83.00
2022-11-18T04:20:55.850Z,70.15
2022-11-18T04:25:57.186Z,72.53
2022-11-18T04:30:58.537Z,71.10
2022-11-18T04:35:59.880Z,68.68
2022-11-18T04:41:01.222Z,69.10
2022-11-18T04:46:02.788Z,70.80
2022-11-18T04:51:04.873Z,71.78
2022-11-18T04:56:07.701Z,60.35
2022-11-18T05:01:09.092Z,65.88
2022-11-18T05:06:10.446Z,63.72
2022-11-18T05:11:30.815Z,58.25
2022-11-18T05:16:32.208Z,57.22
2022-11-18T05:21:33.686Z,53.42
2022-11-18T05:26:35.087Z,62.90
2022-11-18T05:31:36.571Z,64.75
2022-11-18T05:36:37.931Z,72.43
2022-11-18T05:41:57.986Z,62.55
2022-11-18T05:47:00.181Z,55.13
2022-11-18T05:52:02.445Z,58.95
2022-11-18T05:57:03.918Z,58.25
2022-11-18T06:02:30.626Z,51.85
2022-11-18T06:07:39.192Z,54.22
2022-11-18T06:12:45.345Z,52.22
2022-11-18T06:18:02.081Z,56.08
2022-11-18T06:23:03.760Z,52.78
2022-11-18T06:28:05.328Z,55.53
2022-11-18T06:33:06.942Z,51.13
2022-11-18T06:38:08.570Z,48.55
2022-11-18T06:43:29.867Z,56.40
2022-11-18T06:48:32.103Z,56.78
2022-11-18T06:53:35.128Z,45.75
2022-11-18T06:58:36.753Z,50.97
2022-11-18T07:03:40.140Z,41.50
2022-11-18T07:08:42.513Z,40.42
2022-11-18T07:13:45.564Z,33.88
2022-11-18T07:18:48.746Z,31.35
2022-11-18T07:23:50.697Z,29.13
2022-11-18T07:28:54.185Z,23.77
2022-11-18T07:33:55.839Z,21.38
2022-11-18T07:39:01.962Z,24.50
2022-11-18T07:44:04.604Z,35.08
2022-11-18T07:49:10.848Z,23.55
2022-11-18T07:54:14.560Z,27.15
2022-11-18T07:59:16.657Z,28.23
2022-11-18T08:04:18.386Z,22.52
2022-11-18T08:09:20.045Z,26.48
2022-11-18T08:14:24.093Z,27.63
2022-11-18T08:19:25.750Z,28.65
2022-11-18T08:24:27.249Z,27.52
2022-11-18T08:29:29.160Z,25.38
2022-11-18T08:34:31.501Z,25.40
2022-11-18T08:39:33.094Z,29.10
2022-11-18T08:44:35.171Z,34.20
2022-11-18T08:49:37.155Z,30.85
2022-11-18T08:54:38.933Z,27.80
2022-11-18T08:59:40.537Z,28.33
2022-11-18T09:04:42.249Z,29.38
2022-11-18T09:09:43.738Z,23.23
2022-11-18T09:20:07.686Z,24.27
2022-11-18T09:25:09.415Z,29.48
2022-11-18T09:30:11.149Z,31.13
2022-11-18T09:35:13.573Z,28.98
2022-11-18T09:40:18.358Z,23.23
2022-11-18T09:45:31.006Z,26.00
2022-11-18T09:50:50.071Z,23.88
2022-11-18T09:55:54.004Z,18.67
2022-11-18T10:00:55.373Z,19.23
2022-11-18T10:06:09.704Z,19.88
2022-11-18T10:11:20.187Z,17.73
2022-11-18T10:16:57.719Z,7.20
2022-11-18T10:22:24.656Z,11.80
2022-11-18T10:27:35.030Z,11.43
2022-11-18T10:33:02.837Z,10.43
2022-11-18T10:38:13.186Z,12.05
2022-11-18T10:43:45.280Z,10.48
2022-11-18T10:48:47.279Z,12.10
2022-11-18T10:53:48.722Z,11.60
2022-11-18T10:58:51.401Z,10.30
2022-11-18T11:03:55.767Z,7.93
2022-11-18T11:09:28.432Z,13.20
2022-11-18T11:14:35.636Z,10.13
2022-11-18T11:19:52.004Z,10.82
2022-11-18T11:24:53.510Z,13.52
2022-11-18T11:30:16.630Z,10.10
2022-11-18T11:35:23.938Z,9.13
2022-11-18T11:40:34.911Z,7.10
2022-11-18T11:45:47.229Z,9.18
2022-11-18T11:51:04.989Z,6.65
2022-11-18T11:56:22.392Z,6.82
2022-11-18T12:01:49.742Z,7.85
2022-11-18T12:06:53.374Z,7.28
2022-11-18T12:12:28.946Z,7.72
2022-11-18T12:17:46.751Z,11.18
2022-11-18T12:23:12.190Z,6.20
2022-11-18T12:28:30.647Z,8.55
2022-11-18T12:33:32.114Z,8.27
2022-11-18T12:38:33.502Z,7.95
2022-11-18T12:44:05.470Z,6.60
2022-11-18T12:49:22.161Z,7.63
2022-11-18T12:54:29.188Z,6.60
2022-11-18T12:59:36.301Z,5.70
2022-11-18T13:04:45.837Z,2.05
2022-11-18T13:09:49.072Z,3.58
2022-11-18T13:15:09.803Z,1.58
2022-11-18T13:20:37.347Z,2.92
2022-11-18T13:25:40.132Z,3.85
2022-11-18T13:30:51.169Z,6.32
2022-11-18T13:35:52.681Z,3.88
2022-11-18T13:41:08.199Z,4.40
2022-11-18T13:46:17.138Z,4.30
2022-11-18T13:51:18.738Z,2.05
2022-11-18T13:56:22.638Z,3.55
2022-11-18T14:01:27.475Z,2.35
2022-11-18T14:06:41.226Z,2.08
2022-11-18T14:11:46.273Z,2.22
2022-11-18T14:16:47.996Z,2.22
2022-11-18T14:21:49.445Z,2.25
2022-11-18T14:26:50.800Z,0.75
2022-11-18T14:32:14.817Z,1.25
2022-11-18T14:37:16.506Z,0.85
2022-11-18T14:42:17.882Z,2.85
2022-11-18T14:47:28.382Z,0.68
2022-11-18T14:52:29.834Z,2.28
2022-11-18T14:57:31.238Z,1.65
2022-11-18T15:02:32.679Z,4.20
2022-11-18T15:07:34.443Z,4.40
2022-11-18T15:12:35.859Z,3.10
2022-11-18T15:17:37.306Z,5.90
2022-11-18T15:22:38.754Z,3.80
2022-11-18T15:27:40.295Z,5.78
2022-11-18T15:32:42.331Z,5.13
2022-11-18T15:37:43.704Z,7.50
2022-11-18T15:42:50.616Z,5.28
2022-11-18T15:47:53.544Z,7.63
2022-11-18T15:52:55.749Z,5.30
2022-11-18T15:57:57.075Z,4.57
2022-11-18T16:02:58.426Z,6.18
2022-11-18T16:07:59.903Z,7.70
2022-11-18T16:13:01.287Z,5.78
2022-11-18T16:18:03.561Z,15.35
2022-11-18T16:23:05.163Z,15.50
2022-11-18T16:33:27.897Z,5.47
2022-11-18T16:38:29.304Z,21.80
2022-11-18T16:40:28.282Z,10.88
2022-11-18T16:43:30.663Z,15.48
2022-11-18T16:48:32.012Z,21.30
2022-11-18T16:53:33.366Z,18.15
2022-11-18T16:58:34.795Z,31.80
2022-11-18T17:03:36.183Z,18.20
2022-11-18T17:08:37.747Z,14.98
2022-11-18T17:13:40.444Z,17.45
2022-11-18T17:18:42.757Z,13.27
2022-11-18T17:23:45.829Z,12.32
2022-11-18T17:28:47.328Z,9.82
2022-11-18T17:33:50.947Z,14.38
2022-11-18T17:38:54.587Z,12.90
2022-11-18T17:43:55.981Z,20.70
2022-11-18T17:48:59.027Z,18.73
2022-11-18T17:54:00.379Z,20.27
2022-11-18T17:59:01.804Z,19.05
2022-11-18T18:04:03.206Z,18.40
2022-11-18T18:09:04.592Z,18.88
2022-11-18T18:14:14.810Z,28.33
2022-11-18T18:19:21.525Z,30.33
2022-11-18T18:24:24.033Z,31.13
2022-11-18T18:29:25.717Z,27.90
2022-11-18T18:34:27.141Z,23.90
2022-11-18T18:39:28.553Z,40.40
2022-11-18T18:44:49.879Z,36.85
2022-11-18T18:49:51.248Z,19.75
2022-11-18T18:54:52.716Z,16.98
2022-11-18T18:59:54.078Z,20.40
2022-11-18T19:04:55.467Z,20.08
2022-11-18T19:09:56.863Z,27.13
2022-11-18T19:14:58.250Z,20.58
2022-11-18T19:20:18.068Z,19.45
2022-11-18T19:25:19.512Z,19.05
2022-11-18T19:30:20.886Z,18.30
2022-11-18T19:35:22.976Z,12.63
2022-11-18T19:40:24.329Z,14.82
2022-11-18T19:45:25.756Z,21.92
2022-11-18T19:50:27.326Z,18.35
2022-11-18T19:55:28.645Z,18.92
2022-11-18T20:00:30.193Z,18.13
2022-11-18T20:05:52.758Z,13.00
2022-11-18T20:10:54.181Z,12.93
2022-11-18T20:16:10.449Z,14.00
2022-11-18T20:21:19.692Z,14.38
2022-11-18T20:26:23.365Z,21.10
2022-11-18T20:31:26.091Z,17.63
2022-11-18T20:36:33.271Z,13.20
2022-11-18T20:41:36.196Z,16.40
2022-11-18T20:46:37.554Z,20.40
2022-11-18T20:51:38.915Z,18.15
2022-11-18T20:56:40.439Z,14.23
2022-11-18T21:01:41.906Z,17.80
2022-11-18T21:06:43.295Z,36.58
2022-11-18T21:11:44.629Z,25.48
2022-11-18T21:16:46.291Z,15.35
2022-11-18T21:21:54.513Z,13.48
2022-11-18T21:26:57.762Z,16.65
2022-11-18T21:32:02.907Z,8.18
2022-11-18T21:37:05.289Z,16.70
2022-11-18T21:42:06.623Z,15.32
2022-11-18T21:47:07.962Z,11.13
2022-11-18T21:52:09.307Z,11.48
2022-11-18T21:57:10.670Z,12.60
2022-11-18T22:02:15.205Z,14.88
2022-11-18T22:07:16.670Z,19.88
2022-11-18T22:12:18.178Z,15.75
2022-11-18T22:17:19.544Z,15.95
2022-11-18T22:22:21.696Z,16.42
2022-11-18T22:27:23.050Z,9.02
2022-11-18T22:32:24.802Z,6.90
2022-11-18T22:37:26.137Z,3.72
2022-11-18T22:42:45.819Z,3.53
2022-11-18T22:47:47.162Z,4.72
2022-11-18T22:52:48.489Z,2.72
2022-11-18T22:57:49.828Z,1.30
2022-11-18T23:02:51.185Z,2.20
2022-11-18T23:07:52.566Z,4.55
2022-11-18T23:13:12.324Z,3.75
2022-11-18T23:18:13.727Z,4.45
2022-11-18T23:23:15.134Z,4.78
2022-11-18T23:28:16.473Z,3.95
2022-11-18T23:33:17.887Z,5.95
2022-11-18T23:38:19.221Z,3.85
2022-11-18T23:43:20.688Z,6.20
2022-11-18T23:48:23.368Z,5.15
2022-11-18T23:53:25.981Z,5.60
2022-11-18T23:58:27.490Z,5.22
